Kingsville

*Note: All times are displayed in the local standard time of the station location.
**Rain - Equipment is designed to accurately record liquid precipitation; under conditions when precipitation is not in liquid form, the data displayed may not properly reflect rainfall values.

Date Max Temp
(°C)
Min Temp
(°C)
Avg Temp
(°C)
Rain (mm) Avg RH (%)
Mon, May 21, 2018 17.1 8.4 12.6 6.6 74.2
Sun, May 20, 2018 17.9 10.7 14.5 0.6 86.6
Sat, May 19, 2018 24.0 12.5 17.6 4.2 82.6
Fri, May 18, 2018 17.7 10.5 13.9 0.0 57.0
Thu, May 17, 2018 22.7 9.1 15.7 0.0 73.1
Wed, May 16, 2018 20.7 8.8 14.4 0.0 79.2
Tue, May 15, 2018 20.5 11.2 16.9 11.4 85.1
DateTime Avg Temp (°C) Rain (mm) RH (%)
Tue, May 22, 2018 20:00 18.1 0.0 81.5
Tue, May 22, 2018 19:00 19.4 0.0 80.8
Tue, May 22, 2018 18:00 20.0 1.6 83.0
Tue, May 22, 2018 17:00 21.0 0.0 77.3
Tue, May 22, 2018 16:00 21.6 0.0 77.0
Tue, May 22, 2018 15:00 21.9 0.0 76.0
Tue, May 22, 2018 14:00 20.8 0.0 80.3
Tue, May 22, 2018 13:00 19.5 0.0 84.0
Tue, May 22, 2018 12:00 18.3 0.0 89.0
Tue, May 22, 2018 11:00 16.1 0.0 100.0
Tue, May 22, 2018 10:00 15.2 0.0 100.0
Tue, May 22, 2018 09:00 15.1 0.0 100.0
Tue, May 22, 2018 08:00 14.4 0.0 100.0
Tue, May 22, 2018 07:00 13.4 0.2 100.0
Tue, May 22, 2018 06:00 13.1 0.0 100.0
Tue, May 22, 2018 05:00 13.2 0.0 100.0
Tue, May 22, 2018 04:00 12.8 1.6 100.0
Tue, May 22, 2018 03:00 12.9 1.6 88.5
Tue, May 22, 2018 02:00 12.9 0.0 80.5
Tue, May 22, 2018 01:00 12.8 0.4 79.5
Tue, May 22, 2018 00:00 12.7 0.0 85.5
Mon, May 21, 2018 23:00 12.4 0.0 86.0
Mon, May 21, 2018 22:00 12.1 0.0 88.3
Mon, May 21, 2018 21:00 12.0 0.8 84.8
Mon, May 21, 2018 20:00 12.3 3.8 81.5
Mon, May 21, 2018 19:00 13.6 0.8 79.8
Mon, May 21, 2018 18:00 15.5 1.2 65.8
Mon, May 21, 2018 17:00 16.2 0.0 57.3
Mon, May 21, 2018 16:00 16.5 0.0 59.3
Mon, May 21, 2018 15:00 17.0 0.0 59.5
Mon, May 21, 2018 14:00 16.5 0.0 59.8
Mon, May 21, 2018 13:00 16.1 0.0 54.3
Mon, May 21, 2018 12:00 15.9 0.0 54.3
Mon, May 21, 2018 11:00 15.3 0.0 59.0
Mon, May 21, 2018 10:00 13.5 0.0 59.0
Mon, May 21, 2018 09:00 11.2 0.0 65.3
Mon, May 21, 2018 08:00 9.0 0.0 75.5
Mon, May 21, 2018 07:00 8.7 0.0 83.0
Mon, May 21, 2018 06:00 8.9 0.0 86.8
Mon, May 21, 2018 05:00 9.1 0.0 88.0
Mon, May 21, 2018 04:00 8.9 0.0 90.5
Mon, May 21, 2018 03:00 9.4 0.0 89.0
Mon, May 21, 2018 02:00 9.9 0.0 83.5
Mon, May 21, 2018 01:00 10.1 0.0 85.5
Mon, May 21, 2018 00:00 11.1 0.0 83.8
Sun, May 20, 2018 23:00 12.3 0.0 83.3
Sun, May 20, 2018 22:00 13.5 0.0 79.5
Sun, May 20, 2018 21:00 13.0 0.0 88.8


asterix Register now to access more data! asterix